Lil T — WDJ5591 — position and weather

sailwx.info

Track history (hours):
 
Tides and Currents Weather Stations Pressure Air Temp Water Temp Dewpoint Dewpoint Depression Visibility Wind Speed Wind Dir Waves Ship Positions

Lil T

Owner: Dean Equipment Inc., Harvey, LA. More information available from US FCC via Universal Licensing System and Coast Guard Vessel Documentation Center.

Last reported at 2018-Apr-01 09:56 UTC. Time now 2018-Apr-22 08:26 UTC.
Position N 29°47' W 090°26'.
Warning: this ship's position is 20 days out of date.

Length 17 m.

Type: Towing. MMSI: 367789350.

Date/timePositionNaut miles runAvg speedWind from/ knotsBaromVisibWave heightAir tempDewpointWater temp
2018-Apr-01 09:56N 29°47' W 090°26'0 0.0
2018-Apr-01 08:52N 29°47' W 090°26'  
2018-Mar-23 05:35N 29°33' W 090°24'2 7.8
2018-Mar-23 05:23N 29°33' W 090°26'3 7.8
2018-Mar-23 05:00N 29°34' W 090°29'4 7.8
2018-Mar-23 04:30N 29°34' W 090°34'4 7.6
2018-Mar-23 04:00N 29°35' W 090°38'4 7.9
2018-Mar-23 03:30N 29°37' W 090°42'3 6.5
2018-Mar-23 02:59N 29°34' W 090°44'4 8.0
2018-Mar-23 02:29N 29°32' W 090°48'  
Track history (hours):
 
Tides and Currents Weather Stations Pressure Air Temp Water Temp Dewpoint Dewpoint Depression Visibility Wind Speed Wind Dir Waves Ship Positions

Lil T

Owner: Dean Equipment Inc., Harvey, LA. More information available from US FCC via Universal Licensing System and Coast Guard Vessel Documentation Center.

Last reported at 2018-Apr-01 09:56 UTC. Time now 2018-Apr-22 08:26 UTC.
Position N 29°47' W 090°26'.
Warning: this ship's position is 20 days out of date.

Length 17 m.

Type: Towing. MMSI: 367789350.

Date/timePositionNaut miles runAvg speedWind from/ knotsBaromVisibWave heightAir tempDewpointWater temp
2018-Apr-01 09:56N 29°47' W 090°26'0 0.0
2018-Apr-01 08:52N 29°47' W 090°26'  
2018-Mar-23 05:35N 29°33' W 090°24'2 7.8
2018-Mar-23 05:23N 29°33' W 090°26'3 7.8
2018-Mar-23 05:00N 29°34' W 090°29'4 7.8
2018-Mar-23 04:30N 29°34' W 090°34'4 7.6
2018-Mar-23 04:00N 29°35' W 090°38'4 7.9
2018-Mar-23 03:30N 29°37' W 090°42'3 6.5
2018-Mar-23 02:59N 29°34' W 090°44'4 8.0
2018-Mar-23 02:29N 29°32' W 090°48'  

Dump ship's entire track history